sensor_id;sensor_type;location;lat;lon;timestamp;P1;durP1;ratioP1;P2;durP2;ratioP2
29824;SDS011;16713;52.916;12.834;2022-12-26T00:00:24;15.48;;;9.35;;
29824;SDS011;16713;52.916;12.834;2022-12-26T00:02:51;17.85;;;9.43;;
29824;SDS011;16713;52.916;12.834;2022-12-26T00:05:17;11.57;;;8.15;;
29824;SDS011;16713;52.916;12.834;2022-12-26T00:07:44;15.35;;;9.27;;
29824;SDS011;16713;52.916;12.834;2022-12-26T00:10:11;13.75;;;8.27;;
29824;SDS011;16713;52.916;12.834;2022-12-26T00:12:37;14.15;;;8.55;;
29824;SDS011;16713;52.916;12.834;2022-12-26T00:15:04;15.20;;;9.15;;
29824;SDS011;16713;52.916;12.834;2022-12-26T00:17:30;11.25;;;8.30;;
29824;SDS011;16713;52.916;12.834;2022-12-26T00:19:57;13.15;;;8.48;;
29824;SDS011;16713;52.916;12.834;2022-12-26T00:22:24;13.52;;;8.55;;
29824;SDS011;16713;52.916;12.834;2022-12-26T00:24:50;12.55;;;8.57;;
29824;SDS011;16713;52.916;12.834;2022-12-26T00:27:16;16.45;;;9.25;;
29824;SDS011;16713;52.916;12.834;2022-12-26T00:29:43;11.20;;;8.43;;
29824;SDS011;16713;52.916;12.834;2022-12-26T00:32:09;19.80;;;8.80;;
29824;SDS011;16713;52.916;12.834;2022-12-26T00:34:36;12.25;;;8.57;;
29824;SDS011;16713;52.916;12.834;2022-12-26T00:37:03;16.70;;;9.80;;
29824;SDS011;16713;52.916;12.834;2022-12-26T00:39:29;14.10;;;8.93;;
29824;SDS011;16713;52.916;12.834;2022-12-26T00:41:56;12.88;;;7.97;;
29824;SDS011;16713;52.916;12.834;2022-12-26T00:44:22;15.65;;;8.93;;
29824;SDS011;16713;52.916;12.834;2022-12-26T00:46:49;12.45;;;8.70;;
29824;SDS011;16713;52.916;12.834;2022-12-26T00:49:15;13.27;;;8.07;;
29824;SDS011;16713;52.916;12.834;2022-12-26T00:51:42;10.60;;;8.07;;
29824;SDS011;16713;52.916;12.834;2022-12-26T00:54:08;16.67;;;8.75;;
29824;SDS011;16713;52.916;12.834;2022-12-26T00:56:34;14.07;;;8.43;;
29824;SDS011;16713;52.916;12.834;2022-12-26T00:59:01;11.23;;;8.57;;
29824;SDS011;16713;52.916;12.834;2022-12-26T01:01:27;10.88;;;8.15;;
29824;SDS011;16713;52.916;12.834;2022-12-26T01:03:57;12.38;;;8.63;;
29824;SDS011;16713;52.916;12.834;2022-12-26T01:06:24;12.40;;;8.50;;
29824;SDS011;16713;52.916;12.834;2022-12-26T01:08:51;10.85;;;7.90;;
29824;SDS011;16713;52.916;12.834;2022-12-26T01:11:18;10.07;;;7.78;;
29824;SDS011;16713;52.916;12.834;2022-12-26T01:14:04;13.23;;;8.95;;
29824;SDS011;16713;52.916;12.834;2022-12-26T01:16:38;14.25;;;8.75;;
29824;SDS011;16713;52.916;12.834;2022-12-26T01:19:05;11.45;;;8.07;;
29824;SDS011;16713;52.916;12.834;2022-12-26T01:21:32;11.45;;;7.80;;
29824;SDS011;16713;52.916;12.834;2022-12-26T01:23:59;11.27;;;8.70;;
29824;SDS011;16713;52.916;12.834;2022-12-26T01:26:25;14.30;;;8.07;;
29824;SDS011;16713;52.916;12.834;2022-12-26T01:28:52;11.93;;;7.65;;
29824;SDS011;16713;52.916;12.834;2022-12-26T01:31:19;14.20;;;8.23;;
29824;SDS011;16713;52.916;12.834;2022-12-26T01:33:47;11.18;;;8.20;;
29824;SDS011;16713;52.916;12.834;2022-12-26T01:36:14;13.52;;;8.73;;
29824;SDS011;16713;52.916;12.834;2022-12-26T01:38:41;11.73;;;8.60;;
29824;SDS011;16713;52.916;12.834;2022-12-26T01:41:08;12.32;;;8.10;;
29824;SDS011;16713;52.916;12.834;2022-12-26T01:43:52;14.32;;;7.90;;
29824;SDS011;16713;52.916;12.834;2022-12-26T01:46:23;10.85;;;7.70;;
29824;SDS011;16713;52.916;12.834;2022-12-26T01:49:18;9.27;;;7.85;;
29824;SDS011;16713;52.916;12.834;2022-12-26T01:52:02;11.02;;;8.00;;
29824;SDS011;16713;52.916;12.834;2022-12-26T01:54:32;11.05;;;8.00;;
29824;SDS011;16713;52.916;12.834;2022-12-26T01:57:13;12.00;;;7.15;;
29824;SDS011;16713;52.916;12.834;2022-12-26T01:59:52;14.32;;;8.32;;
29824;SDS011;16713;52.916;12.834;2022-12-26T02:02:21;10.85;;;6.80;;
29824;SDS011;16713;52.916;12.834;2022-12-26T02:04:51;11.15;;;7.55;;
29824;SDS011;16713;52.916;12.834;2022-12-26T02:07:38;11.95;;;7.32;;
29824;SDS011;16713;52.916;12.834;2022-12-26T02:10:08;10.93;;;7.80;;
29824;SDS011;16713;52.916;12.834;2022-12-26T02:12:42;12.80;;;7.45;;
29824;SDS011;16713;52.916;12.834;2022-12-26T02:15:11;10.23;;;7.18;;
29824;SDS011;16713;52.916;12.834;2022-12-26T02:17:40;11.85;;;7.72;;
29824;SDS011;16713;52.916;12.834;2022-12-26T02:20:27;11.38;;;7.40;;
29824;SDS011;16713;52.916;12.834;2022-12-26T02:23:10;15.70;;;7.75;;
29824;SDS011;16713;52.916;12.834;2022-12-26T02:29:15;10.90;;;6.88;;
29824;SDS011;16713;52.916;12.834;2022-12-26T02:43:21;9.98;;;7.38;;
29824;SDS011;16713;52.916;12.834;2022-12-26T02:46:01;12.32;;;8.05;;
29824;SDS011;16713;52.916;12.834;2022-12-26T02:49:01;12.40;;;7.43;;
29824;SDS011;16713;52.916;12.834;2022-12-26T02:54:47;11.23;;;7.90;;
29824;SDS011;16713;52.916;12.834;2022-12-26T02:57:55;10.70;;;7.25;;
29824;SDS011;16713;52.916;12.834;2022-12-26T03:00:49;10.80;;;7.72;;
29824;SDS011;16713;52.916;12.834;2022-12-26T03:03:41;12.65;;;7.60;;
29824;SDS011;16713;52.916;12.834;2022-12-26T03:06:30;9.93;;;7.28;;
29824;SDS011;16713;52.916;12.834;2022-12-26T03:09:28;12.18;;;7.85;;
29824;SDS011;16713;52.916;12.834;2022-12-26T03:15:02;11.20;;;7.25;;
29824;SDS011;16713;52.916;12.834;2022-12-26T03:17:37;9.43;;;6.78;;
29824;SDS011;16713;52.916;12.834;2022-12-26T03:28:51;10.50;;;6.78;;
29824;SDS011;16713;52.916;12.834;2022-12-26T03:31:17;12.63;;;7.80;;
29824;SDS011;16713;52.916;12.834;2022-12-26T03:33:45;16.52;;;8.10;;
29824;SDS011;16713;52.916;12.834;2022-12-26T03:39:08;10.98;;;7.07;;
29824;SDS011;16713;52.916;12.834;2022-12-26T03:42:02;12.32;;;7.72;;
29824;SDS011;16713;52.916;12.834;2022-12-26T03:44:57;9.27;;;7.07;;
29824;SDS011;16713;52.916;12.834;2022-12-26T03:47:54;11.23;;;6.72;;
29824;SDS011;16713;52.916;12.834;2022-12-26T03:50:52;9.32;;;6.90;;
29824;SDS011;16713;52.916;12.834;2022-12-26T03:53:49;12.50;;;6.80;;
29824;SDS011;16713;52.916;12.834;2022-12-26T03:56:59;12.10;;;7.38;;
29824;SDS011;16713;52.916;12.834;2022-12-26T03:59:57;11.60;;;8.00;;
29824;SDS011;16713;52.916;12.834;2022-12-26T04:02:47;11.02;;;7.35;;
29824;SDS011;16713;52.916;12.834;2022-12-26T04:05:36;12.25;;;7.47;;
29824;SDS011;16713;52.916;12.834;2022-12-26T04:08:27;12.88;;;7.90;;
29824;SDS011;16713;52.916;12.834;2022-12-26T04:11:19;10.35;;;7.38;;
29824;SDS011;16713;52.916;12.834;2022-12-26T04:14:09;13.70;;;8.07;;
29824;SDS011;16713;52.916;12.834;2022-12-26T04:20:19;12.68;;;8.00;;
29824;SDS011;16713;52.916;12.834;2022-12-26T04:22:57;15.00;;;9.35;;
29824;SDS011;16713;52.916;12.834;2022-12-26T04:26:03;17.38;;;8.60;;
29824;SDS011;16713;52.916;12.834;2022-12-26T04:28:53;14.27;;;9.20;;
29824;SDS011;16713;52.916;12.834;2022-12-26T04:31:41;14.52;;;9.23;;
29824;SDS011;16713;52.916;12.834;2022-12-26T04:34:54;11.10;;;8.88;;
29824;SDS011;16713;52.916;12.834;2022-12-26T04:37:47;11.38;;;8.85;;
29824;SDS011;16713;52.916;12.834;2022-12-26T04:40:35;13.52;;;8.85;;
29824;SDS011;16713;52.916;12.834;2022-12-26T04:43:24;12.77;;;8.68;;
29824;SDS011;16713;52.916;12.834;2022-12-26T04:46:17;13.25;;;8.02;;
29824;SDS011;16713;52.916;12.834;2022-12-26T04:48:47;15.20;;;9.65;;
29824;SDS011;16713;52.916;12.834;2022-12-26T04:51:34;12.50;;;8.05;;
29824;SDS011;16713;52.916;12.834;2022-12-26T04:54:01;10.95;;;8.32;;
29824;SDS011;16713;52.916;12.834;2022-12-26T04:56:29;10.73;;;8.07;;
29824;SDS011;16713;52.916;12.834;2022-12-26T04:58:55;12.05;;;8.25;;
29824;SDS011;16713;52.916;12.834;2022-12-26T05:01:22;13.05;;;8.32;;
29824;SDS011;16713;52.916;12.834;2022-12-26T05:04:09;8.60;;;7.07;;
29824;SDS011;16713;52.916;12.834;2022-12-26T05:06:58;14.23;;;8.05;;
29824;SDS011;16713;52.916;12.834;2022-12-26T05:09:46;10.27;;;7.63;;
29824;SDS011;16713;52.916;12.834;2022-12-26T05:12:15;9.93;;;7.53;;
29824;SDS011;16713;52.916;12.834;2022-12-26T05:14:41;9.50;;;6.75;;
29824;SDS011;16713;52.916;12.834;2022-12-26T05:17:08;9.55;;;6.82;;
29824;SDS011;16713;52.916;12.834;2022-12-26T05:19:55;10.95;;;7.22;;
29824;SDS011;16713;52.916;12.834;2022-12-26T05:22:42;8.63;;;6.63;;
29824;SDS011;16713;52.916;12.834;2022-12-26T05:25:30;9.63;;;6.95;;
29824;SDS011;16713;52.916;12.834;2022-12-26T05:28:17;9.88;;;7.15;;
29824;SDS011;16713;52.916;12.834;2022-12-26T05:31:03;11.95;;;7.15;;
29824;SDS011;16713;52.916;12.834;2022-12-26T05:33:30;9.98;;;7.85;;
29824;SDS011;16713;52.916;12.834;2022-12-26T05:36:15;9.15;;;6.60;;
29824;SDS011;16713;52.916;12.834;2022-12-26T05:38:44;9.35;;;7.05;;
29824;SDS011;16713;52.916;12.834;2022-12-26T05:41:11;7.75;;;6.55;;
29824;SDS011;16713;52.916;12.834;2022-12-26T05:43:37;8.68;;;6.30;;
29824;SDS011;16713;52.916;12.834;2022-12-26T05:46:03;6.68;;;5.70;;
29824;SDS011;16713;52.916;12.834;2022-12-26T05:48:30;8.68;;;6.13;;
29824;SDS011;16713;52.916;12.834;2022-12-26T05:50:57;7.72;;;5.65;;
29824;SDS011;16713;52.916;12.834;2022-12-26T05:53:28;7.53;;;5.33;;
29824;SDS011;16713;52.916;12.834;2022-12-26T05:56:00;7.07;;;5.25;;
29824;SDS011;16713;52.916;12.834;2022-12-26T05:58:28;9.45;;;5.72;;
29824;SDS011;16713;52.916;12.834;2022-12-26T06:01:02;7.13;;;5.45;;
29824;SDS011;16713;52.916;12.834;2022-12-26T06:03:51;12.52;;;6.05;;
29824;SDS011;16713;52.916;12.834;2022-12-26T06:06:19;8.77;;;6.32;;
29824;SDS011;16713;52.916;12.834;2022-12-26T06:08:47;8.57;;;6.80;;
29824;SDS011;16713;52.916;12.834;2022-12-26T06:11:15;8.57;;;5.88;;
29824;SDS011;16713;52.916;12.834;2022-12-26T06:13:42;6.93;;;5.82;;
29824;SDS011;16713;52.916;12.834;2022-12-26T06:16:10;7.18;;;5.85;;
29824;SDS011;16713;52.916;12.834;2022-12-26T06:18:38;8.15;;;6.03;;
29824;SDS011;16713;52.916;12.834;2022-12-26T06:21:05;8.55;;;6.30;;
29824;SDS011;16713;52.916;12.834;2022-12-26T06:23:43;8.05;;;6.10;;
29824;SDS011;16713;52.916;12.834;2022-12-26T06:26:09;7.70;;;6.30;;
29824;SDS011;16713;52.916;12.834;2022-12-26T06:28:38;11.10;;;6.88;;
29824;SDS011;16713;52.916;12.834;2022-12-26T06:31:07;10.52;;;6.72;;
29824;SDS011;16713;52.916;12.834;2022-12-26T06:33:39;9.40;;;6.75;;
29824;SDS011;16713;52.916;12.834;2022-12-26T06:36:06;9.70;;;7.18;;
29824;SDS011;16713;52.916;12.834;2022-12-26T06:38:35;8.88;;;6.63;;
29824;SDS011;16713;52.916;12.834;2022-12-26T06:41:06;9.60;;;7.25;;
29824;SDS011;16713;52.916;12.834;2022-12-26T06:43:35;10.70;;;7.00;;
29824;SDS011;16713;52.916;12.834;2022-12-26T06:46:02;8.50;;;6.32;;
29824;SDS011;16713;52.916;12.834;2022-12-26T06:48:30;7.88;;;6.35;;
29824;SDS011;16713;52.916;12.834;2022-12-26T06:51:01;8.77;;;5.97;;
29824;SDS011;16713;52.916;12.834;2022-12-26T06:53:29;9.07;;;6.13;;
29824;SDS011;16713;52.916;12.834;2022-12-26T06:56:03;8.07;;;6.28;;
29824;SDS011;16713;52.916;12.834;2022-12-26T06:58:31;7.10;;;5.60;;
29824;SDS011;16713;52.916;12.834;2022-12-26T07:01:08;7.72;;;6.28;;
29824;SDS011;16713;52.916;12.834;2022-12-26T07:03:37;6.90;;;5.63;;
29824;SDS011;16713;52.916;12.834;2022-12-26T07:06:11;8.77;;;6.18;;
29824;SDS011;16713;52.916;12.834;2022-12-26T07:08:43;8.38;;;6.40;;
29824;SDS011;16713;52.916;12.834;2022-12-26T07:11:16;7.55;;;5.85;;
29824;SDS011;16713;52.916;12.834;2022-12-26T07:13:44;6.85;;;6.00;;
29824;SDS011;16713;52.916;12.834;2022-12-26T07:16:10;9.68;;;7.13;;
29824;SDS011;16713;52.916;12.834;2022-12-26T07:18:37;6.93;;;6.22;;
29824;SDS011;16713;52.916;12.834;2022-12-26T07:21:04;7.60;;;5.97;;
29824;SDS011;16713;52.916;12.834;2022-12-26T07:23:32;9.25;;;6.40;;
29824;SDS011;16713;52.916;12.834;2022-12-26T07:25:59;8.75;;;6.53;;
29824;SDS011;16713;52.916;12.834;2022-12-26T07:28:26;9.30;;;6.35;;
29824;SDS011;16713;52.916;12.834;2022-12-26T07:30:53;7.05;;;5.28;;
29824;SDS011;16713;52.916;12.834;2022-12-26T07:33:19;6.55;;;5.53;;
29824;SDS011;16713;52.916;12.834;2022-12-26T07:35:46;7.65;;;5.93;;
29824;SDS011;16713;52.916;12.834;2022-12-26T07:38:12;6.00;;;5.32;;
29824;SDS011;16713;52.916;12.834;2022-12-26T07:40:39;5.65;;;4.75;;
29824;SDS011;16713;52.916;12.834;2022-12-26T07:43:06;7.25;;;5.68;;
29824;SDS011;16713;52.916;12.834;2022-12-26T07:45:32;5.88;;;4.47;;
29824;SDS011;16713;52.916;12.834;2022-12-26T07:47:59;6.03;;;4.82;;
29824;SDS011;16713;52.916;12.834;2022-12-26T07:50:25;7.15;;;5.78;;
29824;SDS011;16713;52.916;12.834;2022-12-26T07:55:25;6.63;;;5.65;;
29824;SDS011;16713;52.916;12.834;2022-12-26T07:57:51;6.88;;;5.40;;
29824;SDS011;16713;52.916;12.834;2022-12-26T08:00:18;5.72;;;5.20;;
29824;SDS011;16713;52.916;12.834;2022-12-26T08:02:48;7.38;;;5.00;;
29824;SDS011;16713;52.916;12.834;2022-12-26T08:05:16;6.85;;;5.25;;
29824;SDS011;16713;52.916;12.834;2022-12-26T08:07:44;7.10;;;5.13;;
29824;SDS011;16713;52.916;12.834;2022-12-26T08:10:12;5.68;;;5.07;;
29824;SDS011;16713;52.916;12.834;2022-12-26T08:12:39;6.85;;;5.00;;
29824;SDS011;16713;52.916;12.834;2022-12-26T08:15:05;5.80;;;5.20;;
29824;SDS011;16713;52.916;12.834;2022-12-26T08:17:32;7.70;;;5.40;;
29824;SDS011;16713;52.916;12.834;2022-12-26T08:19:59;5.97;;;4.97;;
29824;SDS011;16713;52.916;12.834;2022-12-26T08:22:25;6.63;;;5.55;;
29824;SDS011;16713;52.916;12.834;2022-12-26T08:24:52;7.13;;;6.40;;
29824;SDS011;16713;52.916;12.834;2022-12-26T08:27:19;7.72;;;5.90;;
29824;SDS011;16713;52.916;12.834;2022-12-26T08:29:46;8.20;;;6.45;;
29824;SDS011;16713;52.916;12.834;2022-12-26T08:32:12;7.50;;;6.03;;
29824;SDS011;16713;52.916;12.834;2022-12-26T08:34:39;7.82;;;5.50;;
29824;SDS011;16713;52.916;12.834;2022-12-26T08:37:06;10.10;;;6.72;;
29824;SDS011;16713;52.916;12.834;2022-12-26T08:39:32;7.65;;;6.32;;
29824;SDS011;16713;52.916;12.834;2022-12-26T08:41:59;8.93;;;6.50;;
29824;SDS011;16713;52.916;12.834;2022-12-26T08:44:25;9.07;;;7.15;;
29824;SDS011;16713;52.916;12.834;2022-12-26T08:46:53;9.00;;;6.65;;
29824;SDS011;16713;52.916;12.834;2022-12-26T08:49:20;8.98;;;6.75;;
29824;SDS011;16713;52.916;12.834;2022-12-26T08:51:46;10.45;;;7.82;;
29824;SDS011;16713;52.916;12.834;2022-12-26T08:54:13;10.90;;;7.00;;
29824;SDS011;16713;52.916;12.834;2022-12-26T08:56:39;10.05;;;6.80;;
29824;SDS011;16713;52.916;12.834;2022-12-26T08:59:06;9.90;;;7.57;;
29824;SDS011;16713;52.916;12.834;2022-12-26T09:01:32;11.98;;;7.18;;
29824;SDS011;16713;52.916;12.834;2022-12-26T09:04:01;8.85;;;6.93;;
29824;SDS011;16713;52.916;12.834;2022-12-26T09:06:33;8.23;;;6.50;;
29824;SDS011;16713;52.916;12.834;2022-12-26T09:09:02;7.28;;;5.95;;
29824;SDS011;16713;52.916;12.834;2022-12-26T09:11:29;7.05;;;5.65;;
29824;SDS011;16713;52.916;12.834;2022-12-26T09:13:57;7.95;;;5.68;;
29824;SDS011;16713;52.916;12.834;2022-12-26T09:16:27;7.63;;;5.93;;
29824;SDS011;16713;52.916;12.834;2022-12-26T09:19:02;8.02;;;6.32;;
29824;SDS011;16713;52.916;12.834;2022-12-26T09:21:30;9.05;;;6.85;;
29824;SDS011;16713;52.916;12.834;2022-12-26T09:24:01;8.80;;;6.88;;
29824;SDS011;16713;52.916;12.834;2022-12-26T09:26:29;9.70;;;6.63;;
29824;SDS011;16713;52.916;12.834;2022-12-26T09:28:56;9.77;;;7.00;;
29824;SDS011;16713;52.916;12.834;2022-12-26T09:31:30;11.70;;;8.57;;
29824;SDS011;16713;52.916;12.834;2022-12-26T09:34:02;13.68;;;8.55;;
29824;SDS011;16713;52.916;12.834;2022-12-26T09:38:58;13.25;;;7.97;;
29824;SDS011;16713;52.916;12.834;2022-12-26T09:49:52;19.90;;;9.70;;
29824;SDS011;16713;52.916;12.834;2022-12-26T09:52:23;13.07;;;9.23;;
29824;SDS011;16713;52.916;12.834;2022-12-26T09:54:59;11.88;;;8.57;;
29824;SDS011;16713;52.916;12.834;2022-12-26T10:00:03;13.63;;;8.25;;
29824;SDS011;16713;52.916;12.834;2022-12-26T10:02:31;15.75;;;8.75;;
29824;SDS011;16713;52.916;12.834;2022-12-26T10:05:00;12.45;;;8.57;;
29824;SDS011;16713;52.916;12.834;2022-12-26T10:16:07;11.10;;;7.75;;
29824;SDS011;16713;52.916;12.834;2022-12-26T10:24:13;12.68;;;8.90;;
29824;SDS011;16713;52.916;12.834;2022-12-26T10:26:44;11.27;;;7.88;;
29824;SDS011;16713;52.916;12.834;2022-12-26T10:29:19;12.32;;;7.97;;
29824;SDS011;16713;52.916;12.834;2022-12-26T10:31:55;13.00;;;7.63;;
29824;SDS011;16713;52.916;12.834;2022-12-26T10:34:36;10.88;;;8.32;;
29824;SDS011;16713;52.916;12.834;2022-12-26T10:37:10;10.73;;;7.63;;
29824;SDS011;16713;52.916;12.834;2022-12-26T10:40:04;13.10;;;8.40;;
29824;SDS011;16713;52.916;12.834;2022-12-26T10:42:44;10.55;;;7.63;;
29824;SDS011;16713;52.916;12.834;2022-12-26T10:45:16;10.35;;;7.68;;
29824;SDS011;16713;52.916;12.834;2022-12-26T10:47:52;13.13;;;7.72;;
29824;SDS011;16713;52.916;12.834;2022-12-26T10:50:21;10.65;;;7.45;;
29824;SDS011;16713;52.916;12.834;2022-12-26T10:52:53;12.35;;;7.18;;
29824;SDS011;16713;52.916;12.834;2022-12-26T10:55:28;9.52;;;7.47;;
29824;SDS011;16713;52.916;12.834;2022-12-26T10:58:10;17.17;;;8.00;;
29824;SDS011;16713;52.916;12.834;2022-12-26T11:00:42;10.85;;;7.38;;
29824;SDS011;16713;52.916;12.834;2022-12-26T11:03:12;13.13;;;7.65;;
29824;SDS011;16713;52.916;12.834;2022-12-26T11:05:53;11.30;;;7.45;;
29824;SDS011;16713;52.916;12.834;2022-12-26T11:08:36;10.48;;;6.95;;
29824;SDS011;16713;52.916;12.834;2022-12-26T11:11:12;9.77;;;6.32;;
29824;SDS011;16713;52.916;12.834;2022-12-26T11:13:46;11.23;;;6.97;;
29824;SDS011;16713;52.916;12.834;2022-12-26T11:16:37;8.48;;;6.75;;
29824;SDS011;16713;52.916;12.834;2022-12-26T11:19:05;9.95;;;5.82;;
29824;SDS011;16713;52.916;12.834;2022-12-26T11:21:50;8.23;;;5.95;;
29824;SDS011;16713;52.916;12.834;2022-12-26T11:24:17;8.90;;;6.40;;
29824;SDS011;16713;52.916;12.834;2022-12-26T11:26:45;7.63;;;5.25;;
29824;SDS011;16713;52.916;12.834;2022-12-26T11:29:20;9.07;;;6.22;;
29824;SDS011;16713;52.916;12.834;2022-12-26T11:32:00;9.38;;;5.88;;
29824;SDS011;16713;52.916;12.834;2022-12-26T11:34:29;9.05;;;5.63;;
29824;SDS011;16713;52.916;12.834;2022-12-26T11:37:00;9.13;;;6.75;;
29824;SDS011;16713;52.916;12.834;2022-12-26T11:39:27;8.18;;;6.10;;
29824;SDS011;16713;52.916;12.834;2022-12-26T11:41:58;9.68;;;6.47;;
29824;SDS011;16713;52.916;12.834;2022-12-26T11:44:26;8.85;;;5.97;;
29824;SDS011;16713;52.916;12.834;2022-12-26T11:47:12;10.15;;;6.35;;
29824;SDS011;16713;52.916;12.834;2022-12-26T12:00:33;8.48;;;6.05;;
29824;SDS011;16713;52.916;12.834;2022-12-26T12:06:05;10.52;;;7.18;;
29824;SDS011;16713;52.916;12.834;2022-12-26T12:11:21;12.45;;;7.32;;
29824;SDS011;16713;52.916;12.834;2022-12-26T12:16:43;13.85;;;8.00;;
29824;SDS011;16713;52.916;12.834;2022-12-26T12:21:43;13.88;;;8.48;;
29824;SDS011;16713;52.916;12.834;2022-12-26T12:26:57;13.32;;;8.05;;
29824;SDS011;16713;52.916;12.834;2022-12-26T12:29:37;15.60;;;9.10;;
29824;SDS011;16713;52.916;12.834;2022-12-26T12:32:12;14.00;;;8.75;;
29824;SDS011;16713;52.916;12.834;2022-12-26T12:38:00;12.93;;;9.18;;
29824;SDS011;16713;52.916;12.834;2022-12-26T12:43:32;12.02;;;8.10;;
29824;SDS011;16713;52.916;12.834;2022-12-26T12:57:02;10.82;;;7.38;;
29824;SDS011;16713;52.916;12.834;2022-12-26T13:02:20;10.07;;;7.32;;
29824;SDS011;16713;52.916;12.834;2022-12-26T13:04:55;10.77;;;7.07;;
29824;SDS011;16713;52.916;12.834;2022-12-26T13:07:43;9.48;;;6.65;;
29824;SDS011;16713;52.916;12.834;2022-12-26T13:10:22;9.40;;;6.55;;
29824;SDS011;16713;52.916;12.834;2022-12-26T13:12:52;9.90;;;5.97;;
29824;SDS011;16713;52.916;12.834;2022-12-26T13:15:31;8.23;;;6.15;;
29824;SDS011;16713;52.916;12.834;2022-12-26T13:18:02;7.30;;;5.45;;
29824;SDS011;16713;52.916;12.834;2022-12-26T13:23:34;7.55;;;5.93;;
29824;SDS011;16713;52.916;12.834;2022-12-26T13:26:21;10.43;;;6.05;;
29824;SDS011;16713;52.916;12.834;2022-12-26T13:31:31;6.78;;;5.20;;
29824;SDS011;16713;52.916;12.834;2022-12-26T13:34:00;8.30;;;5.35;;
29824;SDS011;16713;52.916;12.834;2022-12-26T13:36:34;7.10;;;5.22;;
29824;SDS011;16713;52.916;12.834;2022-12-26T13:41:33;7.32;;;5.28;;
29824;SDS011;16713;52.916;12.834;2022-12-26T13:57:55;7.05;;;5.40;;
29824;SDS011;16713;52.916;12.834;2022-12-26T14:09:00;7.38;;;5.72;;
29824;SDS011;16713;52.916;12.834;2022-12-26T14:14:24;9.57;;;6.75;;
29824;SDS011;16713;52.916;12.834;2022-12-26T14:19:44;5.90;;;5.25;;
29824;SDS011;16713;52.916;12.834;2022-12-26T14:27:39;8.32;;;5.57;;
29824;SDS011;16713;52.916;12.834;2022-12-26T14:33:05;6.68;;;5.10;;
29824;SDS011;16713;52.916;12.834;2022-12-26T14:38:37;6.95;;;4.53;;
29824;SDS011;16713;52.916;12.834;2022-12-26T14:41:12;5.95;;;4.55;;
29824;SDS011;16713;52.916;12.834;2022-12-26T14:44:08;8.85;;;5.00;;
29824;SDS011;16713;52.916;12.834;2022-12-26T14:49:23;6.55;;;4.40;;
29824;SDS011;16713;52.916;12.834;2022-12-26T14:58:54;4.50;;;4.10;;
29824;SDS011;16713;52.916;12.834;2022-12-26T15:28:56;7.72;;;5.90;;
29824;SDS011;16713;52.916;12.834;2022-12-26T15:34:19;7.68;;;5.78;;
29824;SDS011;16713;52.916;12.834;2022-12-26T15:48:17;11.43;;;5.90;;
29824;SDS011;16713;52.916;12.834;2022-12-26T15:51:15;7.30;;;5.78;;
29824;SDS011;16713;52.916;12.834;2022-12-26T15:53:58;10.35;;;5.22;;
29824;SDS011;16713;52.916;12.834;2022-12-26T16:01:55;3.50;;;2.03;;
29824;SDS011;16713;52.916;12.834;2022-12-26T16:04:31;4.22;;;2.40;;
29824;SDS011;16713;52.916;12.834;2022-12-26T16:15:48;4.72;;;3.63;;
29824;SDS011;16713;52.916;12.834;2022-12-26T16:18:30;6.68;;;4.43;;
29824;SDS011;16713;52.916;12.834;2022-12-26T16:20:59;5.90;;;5.32;;
29824;SDS011;16713;52.916;12.834;2022-12-26T16:23:48;6.50;;;4.88;;
29824;SDS011;16713;52.916;12.834;2022-12-26T16:26:20;6.60;;;4.50;;
29824;SDS011;16713;52.916;12.834;2022-12-26T16:28:50;6.22;;;4.90;;
29824;SDS011;16713;52.916;12.834;2022-12-26T16:31:27;4.90;;;4.40;;
29824;SDS011;16713;52.916;12.834;2022-12-26T16:33:56;8.23;;;4.15;;
29824;SDS011;16713;52.916;12.834;2022-12-26T16:36:25;5.20;;;4.05;;
29824;SDS011;16713;52.916;12.834;2022-12-26T16:38:54;4.38;;;3.75;;
29824;SDS011;16713;52.916;12.834;2022-12-26T16:41:25;4.85;;;3.92;;
29824;SDS011;16713;52.916;12.834;2022-12-26T16:43:54;4.20;;;3.40;;
29824;SDS011;16713;52.916;12.834;2022-12-26T16:46:25;10.23;;;3.58;;
29824;SDS011;16713;52.916;12.834;2022-12-26T16:48:57;4.90;;;3.88;;
29824;SDS011;16713;52.916;12.834;2022-12-26T16:51:44;3.55;;;3.13;;
29824;SDS011;16713;52.916;12.834;2022-12-26T16:54:35;5.88;;;3.22;;
29824;SDS011;16713;52.916;12.834;2022-12-26T16:57:13;5.70;;;3.07;;
29824;SDS011;16713;52.916;12.834;2022-12-26T17:02:25;5.07;;;3.65;;
29824;SDS011;16713;52.916;12.834;2022-12-26T17:04:58;4.28;;;3.30;;
29824;SDS011;16713;52.916;12.834;2022-12-26T17:07:28;10.77;;;3.95;;
29824;SDS011;16713;52.916;12.834;2022-12-26T17:09:57;5.15;;;3.42;;
29824;SDS011;16713;52.916;12.834;2022-12-26T17:12:32;6.78;;;3.78;;
29824;SDS011;16713;52.916;12.834;2022-12-26T17:15:02;6.43;;;3.30;;
29824;SDS011;16713;52.916;12.834;2022-12-26T17:17:35;5.22;;;3.67;;
29824;SDS011;16713;52.916;12.834;2022-12-26T17:25:31;3.80;;;2.42;;
29824;SDS011;16713;52.916;12.834;2022-12-26T17:33:07;4.95;;;1.90;;
29824;SDS011;16713;52.916;12.834;2022-12-26T17:35:37;2.72;;;1.60;;
29824;SDS011;16713;52.916;12.834;2022-12-26T17:38:25;4.75;;;1.55;;
29824;SDS011;16713;52.916;12.834;2022-12-26T17:40:54;2.08;;;1.40;;
29824;SDS011;16713;52.916;12.834;2022-12-26T17:43:23;2.38;;;1.48;;
29824;SDS011;16713;52.916;12.834;2022-12-26T17:45:55;2.75;;;1.10;;
29824;SDS011;16713;52.916;12.834;2022-12-26T17:48:22;2.95;;;1.05;;
29824;SDS011;16713;52.916;12.834;2022-12-26T17:50:49;1.98;;;0.80;;
29824;SDS011;16713;52.916;12.834;2022-12-26T17:53:33;3.15;;;0.77;;
29824;SDS011;16713;52.916;12.834;2022-12-26T17:56:03;2.35;;;0.75;;
29824;SDS011;16713;52.916;12.834;2022-12-26T17:58:37;13.90;;;3.50;;
29824;SDS011;16713;52.916;12.834;2022-12-26T18:01:03;4.53;;;1.17;;
29824;SDS011;16713;52.916;12.834;2022-12-26T18:03:30;3.90;;;1.50;;
29824;SDS011;16713;52.916;12.834;2022-12-26T18:05:57;2.22;;;1.13;;
29824;SDS011;16713;52.916;12.834;2022-12-26T18:11:06;5.47;;;1.42;;
29824;SDS011;16713;52.916;12.834;2022-12-26T18:13:34;3.95;;;1.42;;
29824;SDS011;16713;52.916;12.834;2022-12-26T18:16:01;2.42;;;1.10;;
29824;SDS011;16713;52.916;12.834;2022-12-26T18:18:32;2.97;;;0.80;;
29824;SDS011;16713;52.916;12.834;2022-12-26T18:21:02;5.43;;;0.82;;
29824;SDS011;16713;52.916;12.834;2022-12-26T18:23:30;1.85;;;0.90;;
29824;SDS011;16713;52.916;12.834;2022-12-26T18:26:00;2.95;;;0.90;;
29824;SDS011;16713;52.916;12.834;2022-12-26T18:28:29;1.25;;;0.80;;
29824;SDS011;16713;52.916;12.834;2022-12-26T18:30:55;5.88;;;1.15;;
29824;SDS011;16713;52.916;12.834;2022-12-26T18:33:23;3.42;;;1.00;;
29824;SDS011;16713;52.916;12.834;2022-12-26T18:35:50;3.22;;;1.05;;
29824;SDS011;16713;52.916;12.834;2022-12-26T18:38:17;1.88;;;0.95;;
29824;SDS011;16713;52.916;12.834;2022-12-26T18:40:46;3.17;;;1.02;;
29824;SDS011;16713;52.916;12.834;2022-12-26T18:43:15;4.93;;;1.15;;
29824;SDS011;16713;52.916;12.834;2022-12-26T18:45:41;1.23;;;0.90;;
29824;SDS011;16713;52.916;12.834;2022-12-26T18:48:11;1.73;;;0.90;;
29824;SDS011;16713;52.916;12.834;2022-12-26T18:50:39;8.07;;;1.27;;
29824;SDS011;16713;52.916;12.834;2022-12-26T18:53:06;6.25;;;1.38;;
29824;SDS011;16713;52.916;12.834;2022-12-26T18:55:33;4.65;;;1.10;;
29824;SDS011;16713;52.916;12.834;2022-12-26T18:57:59;6.07;;;1.55;;
29824;SDS011;16713;52.916;12.834;2022-12-26T19:00:26;6.55;;;1.33;;
29824;SDS011;16713;52.916;12.834;2022-12-26T19:02:52;3.58;;;1.13;;